Historyczne dane pomiarowe

Dodano dane terminowe – wersja testowa.

Dane z okresu 1951-2019

Wersja bazy: 1.34 [2019-03-16, lista zmian], aktualizacja planowana na 2019-04-15

Dane meteo z obszaru Polski uzyskane na podstawie danych udostępnionych przez Instytut Meteorologii i Gospodarki Wodnej – Państwowy Instytut Badawczy.

 

Wybierz Datę:    

       

TemperaturaWilgotnośćWiatrCiśnienieOpadyŚniegCzas trwania zjawisk
 Stacja t tx tn tng RH VA  wxwx mslp ppp RRR   cm mm wxwxwxwxwxwxwx
1987-07-08 20.0 28.1 12.2 11.1 77.0- 0.7 1.3---- 0.0------------
1987-07-07 20.2 28.2 12.2 8.6 58.8- 0.3 0.7---- 0.0------------
1987-07-06 16.5 22.8 6.1 4.2 61.0- 0.7 1.3---- 0.0------------
1987-07-05 14.2 19.7 8.2 7.3 65.0- 0.3 1.3---- 0.0------------
1987-07-04 12.4 30.2 6.4 5.8 86.5- 0.3 1.0---- 0.0------------
1987-07-03 14.2 20.0 6.8 5.3 80.8- 0.3 1.0---- 0.0------------
1987-07-02 14.4 19.0 8.5 7.7 85.5- 1.3 2.3---- 0.0------------
1987-07-01 18.5 27.1 13.9 12.8 91.0- 3.3 1.3---- 0.0------------
1987-06-30 23.4 31.4 14.9 13.0 84.8- 0.7 0.7---- 4.7------------
1987-06-29 16.2 21.9 9.1 6.9 93.3- 3.0 1.0---- 0.0------------
1987-06-28 13.0 16.9 10.0 9.6 83.3- 2.0 1.3---- 0.9------------
1987-06-27 14.0 18.8 11.0 10.4 81.0- 2.3 0.7---- 13.0------------
1987-06-26 14.5 19.9 7.3 4.2 71.3- 2.3 2.3---- 0.0------------
1987-06-25 10.8 14.6 5.4 2.7 81.8- 2.7 2.7---- 0.0------------
1987-06-24 12.5 14.6 11.0 10.1 87.8- 4.0 2.0---- 0.0------------
1987-06-23 13.9 19.4 8.7 7.5 86.0- 1.3 0.3---- 7.7------------
1987-06-22 12.5 17.2 10.8 10.0 95.8- 3.3 1.7---- 0.0------------
1987-06-21 16.1 23.6 12.0 9.8 79.5- 2.0 1.0---- 5.3------------
1987-06-20 15.7 21.3 7.6 4.5 63.5- 1.3 1.3---- 0.0------------
1987-06-19 10.2 12.9 8.2 7.4 92.8- 6.3 0.7---- 0.8------------
1987-06-18 11.8 20.1 6.0 4.2 76.5- 0.3 2.0---- 4.2------------
1987-06-17 11.2 15.0 9.3 8.5 76.3- 3.7 2.7---- 0.0------------
1987-06-16 10.2 13.1 8.0 7.0 96.0- 4.7 6.0---- 0.0------------
1987-06-15 12.2 18.2 6.6 6.1 86.8- 3.3 1.3---- 6.8------------
1987-06-14 14.5 18.6 9.6 9.4 94.3- 3.0 1.7---- 0.0------------
1987-06-13 12.8 16.7 9.4 9.3 79.8- 3.0 1.0---- 0.0------------
1987-06-12 13.5 20.5 10.0 9.0 85.0- 3.7 1.3---- 0.0------------
1987-06-11 15.0 20.2 8.5 5.2 75.8- 1.3 2.0---- 0.0------------
1987-06-10 13.4 19.0 10.0 5.9 87.5- 2.3 1.0---- 0.6------------
1987-06-09 13.5 18.7 9.2 6.6 72.5- 3.0 2.0---- 0.0------------
1987-06-08 15.4 22.9 10.6 7.6 88.3- 2.0 1.3---- 4.9------------
1987-06-07 14.6 19.7 8.2 7.7 80.0- 0.7 0.3---- 0.0------------
1987-06-06 12.7 18.4 8.4 7.5 85.8- 3.3 1.0---- 0.0------------
1987-06-05 10.9 14.3 9.0 8.3100.0- 8.0 2.7---- 0.2------------
1987-06-04 13.2 17.4 9.6 8.8 93.3- 2.7 1.7---- 0.0------------
1987-06-03 11.4 15.5 6.1 4.7 78.5- 2.3 3.0---- 0.4------------
1987-06-02 10.1 13.2 6.9 6.3 84.3- 0.3 1.7---- 0.0------------
1987-06-01 7.9 14.1 -0.5 -1.9 85.5- 3.7 0.7---- 0.0------------
1987-05-31 7.0 9.2 4.0 3.2 92.3- 2.3 0.3---- 0.0------------
1987-05-30 5.4 15.4 4.3 3.7 94.3- 5.7 2.3---- 0.0------------
1987-05-29 5.5 10.1 4.4 3.7 99.3- 6.7 4.7---- 3.1------------
1987-05-28 10.0 15.4 5.0 7.2 94.0- 7.3 2.0---- 5.1------------
1987-05-27 12.4 19.3 1.3 -0.3 62.5- 0.3 1.3---- 0.6------------
1987-05-26 9.1 16.8 0.0 -1.7 66.3- 0.7 2.0---- 0.0------------
1987-05-25 8.0 12.5 0.9 -0.8 69.8- 0.3 1.7---- 0.0------------
1987-05-24 7.2 12.5 1.0 -0.1 80.8- 1.0 3.0---- 0.0------------
1987-05-23 9.4 13.9 3.7 1.2 67.3- 2.0 1.7---- 0.0------------
1987-05-22 6.9 9.4 5.1 3.9 94.3- 7.3 1.7---- 0.0------------
1987-05-21 8.4 13.1 4.5 2.2 78.0- 3.3 1.3---- 0.9------------
1987-05-20 7.9 13.2 4.1 1.0 79.3- 3.0 2.0---- 0.0------------
1987-05-19 9.8 11.9 8.1 7.4 71.3- 2.7 0.0---- 0.0------------
1987-05-18 9.8 15.9 3.2 0.8 70.3- 3.0 0.7---- 0.0------------
1987-05-17 9.4 15.6 6.7 5.9 82.5- 5.0 2.0---- 1.0------------
1987-05-16 12.4 15.8 8.9 8.0 72.5- 3.3 1.0---- 4.3------------
1987-05-15 10.0 15.3 2.7 0.2 61.8- 2.3 1.3---- 0.0------------
1987-05-14 9.0 14.6 5.5 3.5 75.8- 2.7 1.7---- 0.0------------
1987-05-13 10.3 12.1 8.1 7.6 79.8- 3.7 1.7---- 0.0------------
1987-05-12 8.8 12.8 5.6 4.3 85.3- 4.7 2.3---- 5.4------------
1987-05-11 7.6 9.9 4.0 1.2 71.5- 4.0 4.0---- 1.3------------
1987-05-10 10.1 14.1 7.1 3.9 76.8- 3.3 3.3---- 0.0------------
521.7 ms

 

Źródłem pochodzenia danych jest Instytut Meteorologii i Gospodarki Wodnej – Państwowy Instytut Badawczy. Dane Instytutu Meteorologii i Gospodarki Wodnej – Państwowego Instytutu Badawczego zostały przetworzone.

Dane źródłowe można odnaleźć na stronie https://dane.imgw.pl